createdAt,value
2019-02-02T00:01:13.678Z,68.31
2019-02-02T00:06:17.064Z,68.70
2019-02-02T00:11:21.655Z,69.38
2019-02-02T00:16:25.027Z,67.90
2019-02-02T00:21:28.488Z,67.91
2019-02-02T00:26:32.257Z,68.56
2019-02-02T00:31:35.551Z,68.81
2019-02-02T00:36:39.141Z,70.48
2019-02-02T00:41:42.536Z,69.88
2019-02-02T00:46:46.187Z,70.10
2019-02-02T00:51:49.721Z,69.70
2019-02-02T00:56:53.104Z,69.26
2019-02-02T01:01:56.833Z,68.91
2019-02-02T01:07:00.241Z,69.82
2019-02-02T01:12:03.676Z,71.03
2019-02-02T01:17:07.333Z,69.91
2019-02-02T01:22:10.757Z,69.27
2019-02-02T01:27:14.200Z,70.04
2019-02-02T01:32:17.669Z,69.59
2019-02-02T01:37:21.085Z,69.45
2019-02-02T01:42:24.500Z,69.53
2019-02-02T01:47:28.064Z,69.57
2019-02-02T01:52:31.585Z,70.08
2019-02-02T01:57:35.025Z,71.61
2019-02-02T02:02:38.480Z,71.28
2019-02-02T02:07:42.416Z,70.76
2019-02-02T02:12:45.964Z,71.00
2019-02-02T02:17:49.438Z,70.72
2019-02-02T02:22:53.435Z,72.03
2019-02-02T02:27:57.038Z,70.79
2019-02-02T02:33:00.658Z,70.71
2019-02-02T02:38:04.065Z,71.04
2019-02-02T02:43:07.707Z,71.57
2019-02-02T02:48:11.162Z,71.37
2019-02-02T02:53:14.731Z,70.61
2019-02-02T02:58:18.323Z,70.61
2019-02-02T03:03:21.939Z,70.96
2019-02-02T03:08:25.536Z,70.62
2019-02-02T03:13:29.091Z,69.94
2019-02-02T03:18:32.662Z,72.16
2019-02-02T03:23:36.408Z,71.42
2019-02-02T03:28:39.806Z,71.26
2019-02-02T03:33:43.430Z,70.76
2019-02-02T03:38:46.886Z,70.45
2019-02-02T03:43:50.454Z,70.67
2019-02-02T03:48:53.836Z,70.69
2019-02-02T03:54:08.259Z,70.41
2019-02-02T03:59:06.735Z,70.66
2019-02-02T04:04:04.333Z,70.45
2019-02-02T04:09:08.121Z,70.42
2019-02-02T04:14:11.619Z,70.72
2019-02-02T04:19:15.165Z,70.83
2019-02-02T04:24:18.670Z,72.25
2019-02-02T04:29:22.364Z,71.48
2019-02-02T04:34:25.928Z,71.02
2019-02-02T04:39:29.434Z,70.96
2019-02-02T04:44:32.922Z,71.55
2019-02-02T04:49:36.460Z,70.97
2019-02-02T04:54:39.972Z,70.87
2019-02-02T04:59:43.380Z,70.65
2019-02-02T05:04:46.744Z,70.73
2019-02-02T05:09:50.341Z,71.16
2019-02-02T05:14:53.801Z,70.70
2019-02-02T05:19:57.186Z,71.21
2019-02-02T05:25:00.570Z,70.90
2019-02-02T05:30:04.553Z,70.98
2019-02-02T05:35:08.541Z,71.82
2019-02-02T05:40:13.536Z,71.04
2019-02-02T05:45:18.193Z,70.77
2019-02-02T05:50:23.163Z,71.79
2019-02-02T05:55:26.545Z,71.20
2019-02-02T06:00:47.948Z,71.13
2019-02-02T06:05:51.348Z,72.01
2019-02-02T06:10:54.704Z,71.12
2019-02-02T06:15:58.117Z,71.13
2019-02-02T06:21:01.544Z,71.87
2019-02-02T06:26:04.954Z,70.86
2019-02-02T06:31:08.355Z,71.04
2019-02-02T06:36:11.740Z,71.04
2019-02-02T06:41:15.134Z,71.23
2019-02-02T06:46:18.591Z,71.47
2019-02-02T06:51:21.963Z,71.85
2019-02-02T06:56:25.380Z,71.53
2019-02-02T07:01:29.030Z,71.77
2019-02-02T07:06:32.481Z,71.86
2019-02-02T07:11:35.868Z,71.33
2019-02-02T07:16:39.300Z,70.71
2019-02-02T07:21:42.797Z,71.02
2019-02-02T07:26:46.202Z,70.88
2019-02-02T07:31:49.758Z,70.50
2019-02-02T07:36:53.146Z,70.73
2019-02-02T07:41:56.686Z,70.70
2019-02-02T07:47:00.050Z,70.43
2019-02-02T07:52:03.660Z,70.89
2019-02-02T07:57:07.040Z,70.48
2019-02-02T08:02:10.461Z,70.40
2019-02-02T08:07:13.832Z,70.61
2019-02-02T08:12:19.474Z,70.07
2019-02-02T08:17:20.649Z,70.07
2019-02-02T08:22:24.046Z,70.02
2019-02-02T08:27:27.441Z,70.01
2019-02-02T08:32:30.848Z,69.96
2019-02-02T08:37:34.344Z,69.85
2019-02-02T08:42:37.764Z,69.59
2019-02-02T08:47:41.416Z,69.53
2019-02-02T08:52:44.818Z,69.39
2019-02-02T08:57:48.415Z,69.27
2019-02-02T09:02:52.082Z,68.95
2019-02-02T09:07:55.644Z,68.78
2019-02-02T09:12:59.156Z,68.59
2019-02-02T09:18:02.740Z,68.57
2019-02-02T09:23:06.827Z,69.04
2019-02-02T09:28:09.702Z,69.04
2019-02-02T09:33:13.109Z,68.74
2019-02-02T09:38:16.662Z,69.01
2019-02-02T09:43:20.061Z,68.99
2019-02-02T09:48:23.556Z,69.25
2019-02-02T09:53:26.997Z,69.59
2019-02-02T09:58:30.617Z,69.28
2019-02-02T10:03:33.987Z,69.55
2019-02-02T10:08:37.667Z,69.48
2019-02-02T10:13:41.156Z,69.87
2019-02-02T10:18:44.531Z,70.15
2019-02-02T10:23:48.069Z,70.32
2019-02-02T10:28:51.502Z,70.64
2019-02-02T10:33:55.096Z,71.00
2019-02-02T10:38:59.820Z,70.74
2019-02-02T10:44:03.317Z,70.95
2019-02-02T10:49:07.005Z,71.35
2019-02-02T10:54:10.402Z,70.93
2019-02-02T10:59:13.977Z,70.58
2019-02-02T11:04:17.566Z,71.62
2019-02-02T11:09:21.108Z,71.04
2019-02-02T11:14:24.694Z,71.65
2019-02-02T11:19:28.351Z,72.05
2019-02-02T11:24:31.841Z,72.15
2019-02-02T11:29:35.356Z,72.64
2019-02-02T11:34:39.934Z,72.64
2019-02-02T11:39:43.329Z,72.37
2019-02-02T11:44:47.013Z,72.59
2019-02-02T11:49:50.438Z,72.22
2019-02-02T11:54:54.031Z,72.62
2019-02-02T11:59:57.528Z,71.76
2019-02-02T12:05:01.030Z,71.82
2019-02-02T12:10:04.983Z,71.57
2019-02-02T12:15:10.372Z,71.60
2019-02-02T12:20:15.466Z,71.48
2019-02-02T12:25:19.033Z,70.99
2019-02-02T12:30:26.137Z,71.17
2019-02-02T12:35:29.881Z,71.34
2019-02-02T12:40:33.524Z,71.20
2019-02-02T12:45:45.613Z,71.64
2019-02-02T12:50:49.134Z,71.11
2019-02-02T12:55:52.768Z,71.33
2019-02-02T13:00:56.334Z,71.42
2019-02-02T13:06:00.056Z,70.88
2019-02-02T13:11:04.205Z,71.32
2019-02-02T13:16:07.688Z,70.95
2019-02-02T13:21:11.444Z,71.74
2019-02-02T13:26:14.958Z,71.10
2019-02-02T13:31:20.871Z,70.83
2019-02-02T13:36:22.432Z,70.47
2019-02-02T13:41:26.148Z,69.97
2019-02-02T13:46:29.694Z,69.38
2019-02-02T13:51:33.413Z,70.13
2019-02-02T13:56:37.148Z,70.26
2019-02-02T14:01:42.400Z,70.49
2019-02-02T14:06:44.671Z,70.42
2019-02-02T14:11:48.211Z,70.89
2019-02-02T14:16:53.527Z,71.22
2019-02-02T14:21:58.245Z,70.42
2019-02-02T14:27:01.861Z,69.83
2019-02-02T14:32:05.642Z,70.83
2019-02-02T14:37:09.434Z,70.72
2019-02-02T14:42:13.405Z,70.27
2019-02-02T14:47:16.993Z,70.08
2019-02-02T14:52:20.767Z,70.49
2019-02-02T14:57:24.394Z,69.82
2019-02-02T15:02:28.031Z,70.24
2019-02-02T15:07:31.709Z,70.03
2019-02-02T15:12:37.090Z,69.41
2019-02-02T15:17:39.094Z,69.44
2019-02-02T15:22:43.100Z,69.56
2019-02-02T15:27:46.900Z,69.78
2019-02-02T15:32:50.812Z,69.98
2019-02-02T15:37:56.221Z,70.28
2019-02-02T15:43:05.674Z,70.27
2019-02-02T15:48:12.662Z,70.27
2019-02-02T15:53:16.264Z,70.29
2019-02-02T15:58:19.933Z,70.87
2019-02-02T16:03:23.760Z,70.74
2019-02-02T16:08:27.482Z,71.24
2019-02-02T16:13:31.179Z,71.08
2019-02-02T16:18:34.807Z,71.50
2019-02-02T16:23:38.809Z,71.30
2019-02-02T16:28:42.507Z,71.20
2019-02-02T16:33:46.295Z,71.49
2019-02-02T16:38:49.859Z,71.69
2019-02-02T16:43:53.388Z,71.90
2019-02-02T16:48:57.017Z,72.16
2019-02-02T16:54:00.552Z,71.72
2019-02-02T16:59:06.303Z,71.77
2019-02-02T17:04:15.972Z,71.93
2019-02-02T17:09:14.128Z,71.95
2019-02-02T17:14:17.967Z,72.85
2019-02-02T17:19:20.748Z,72.75
2019-02-02T17:24:24.423Z,72.11
2019-02-02T17:29:27.997Z,72.20
2019-02-02T17:34:31.678Z,72.44
2019-02-02T17:39:35.260Z,72.37
2019-02-02T17:44:38.789Z,72.06
2019-02-02T17:49:42.332Z,72.17
2019-02-02T17:54:45.889Z,72.47
2019-02-02T17:59:49.474Z,72.22
2019-02-02T18:04:53.511Z,71.89
2019-02-02T18:09:56.884Z,72.21
2019-02-02T18:15:00.534Z,72.02
2019-02-02T18:20:05.097Z,72.24
2019-02-02T18:25:10.238Z,71.79
2019-02-02T18:30:16.955Z,71.96
2019-02-02T18:35:20.868Z,72.25
2019-02-02T18:40:25.142Z,72.47
2019-02-02T18:45:28.837Z,72.59
2019-02-02T18:50:32.560Z,72.29
2019-02-02T18:55:40.002Z,72.60
2019-02-02T19:00:44.204Z,72.72
2019-02-02T19:05:47.804Z,72.53
2019-02-02T19:10:51.528Z,72.42
2019-02-02T19:15:55.365Z,72.55
2019-02-02T19:20:59.067Z,72.75
2019-02-02T19:26:03.112Z,73.00
2019-02-02T19:31:06.655Z,72.81
2019-02-02T19:36:10.167Z,73.08
2019-02-02T19:41:13.816Z,72.87
2019-02-02T19:46:17.458Z,72.48
2019-02-02T19:51:21.105Z,72.31
2019-02-02T19:56:24.873Z,72.71
2019-02-02T20:01:29.473Z,72.51
2019-02-02T20:06:34.004Z,72.30
2019-02-02T20:11:37.796Z,72.37
2019-02-02T20:16:41.605Z,72.72
2019-02-02T20:21:45.453Z,73.11
2019-02-02T20:26:49.230Z,72.82
2019-02-02T20:31:52.875Z,73.13
2019-02-02T20:36:56.701Z,73.07
2019-02-02T20:42:00.639Z,72.75
2019-02-02T20:47:04.301Z,72.78
2019-02-02T20:52:07.864Z,72.70
2019-02-02T20:57:11.727Z,72.63
2019-02-02T21:02:15.412Z,72.83
2019-02-02T21:07:19.190Z,72.86
2019-02-02T21:12:22.887Z,73.09
2019-02-02T21:17:26.659Z,73.13
2019-02-02T21:22:30.271Z,72.80
2019-02-02T21:27:33.808Z,72.82
2019-02-02T21:32:37.458Z,73.02
2019-02-02T21:37:40.949Z,74.06
2019-02-02T21:42:44.442Z,73.22
2019-02-02T21:47:47.926Z,73.25
2019-02-02T21:52:52.110Z,73.64
2019-02-02T21:57:55.687Z,73.21
2019-02-02T22:02:59.264Z,73.31
2019-02-02T22:08:02.734Z,73.02
2019-02-02T22:13:06.908Z,73.05
2019-02-02T22:18:10.433Z,73.03
2019-02-02T22:23:14.435Z,73.03
2019-02-02T22:28:18.267Z,73.13
2019-02-02T22:33:22.088Z,73.04
2019-02-02T22:38:25.737Z,72.92
2019-02-02T22:43:29.687Z,73.34
2019-02-02T22:48:33.741Z,73.31
2019-02-02T22:53:37.683Z,73.24
2019-02-02T22:58:41.536Z,72.95
2019-02-02T23:03:49.752Z,72.99
2019-02-02T23:09:05.704Z,73.47
2019-02-02T23:14:40.743Z,73.45
2019-02-02T23:19:41.993Z,73.87
2019-02-02T23:24:45.634Z,73.50
2019-02-02T23:29:49.271Z,73.72
2019-02-02T23:34:52.862Z,73.62
2019-02-02T23:39:56.411Z,73.53
2019-02-02T23:44:59.974Z,73.82
2019-02-02T23:50:03.673Z,74.07
2019-02-02T23:55:07.160Z,73.56
